Dades meteorològiques de l'aviació METAR        EIME Baldonnel Military Airfield
Temperatura
11°C Temperatura
10°C Rosada
94% Humitat



Vent
11 KM/H
7 MPH
3 M/S
6 NUS



220°
SO
Condicions actuals

Mostly Cloudy Força ennuvolat
Pressió 1010 (hPa) - 29.83 (inHg)
Visibilitat 6 (milla) - 10 (km)
Aeroport
Codi aeroport EIME

Ubicació: Baldonnel Military Airfield
Distància: 62 (km)

Metar:
METAR EIME 292000Z 22006KT 9999 FEW021 BKN050 BKN250 11/10 Q1010

Temps: 29-09-2022 21:00 IST